createdAt,value
2016-06-28T14:28:41.984Z,7504
2016-06-28T14:29:07.314Z,7684
2016-06-28T14:30:08.182Z,7680
2016-06-28T14:31:07.366Z,7628
2016-06-28T14:32:07.410Z,6632
2016-06-28T14:33:09.074Z,5632
2016-06-28T14:34:08.067Z,5228
2016-06-28T14:35:08.262Z,4912
2016-06-28T14:36:07.455Z,5060
2016-06-28T14:37:07.468Z,5292
2016-06-28T14:39:07.725Z,4868
2016-06-28T14:40:08.975Z,3872
2016-06-28T14:41:23.804Z,5472
2016-06-28T14:42:08.178Z,5720
2016-06-28T14:43:22.582Z,5640
2016-06-28T14:44:08.441Z,5668
2016-06-28T14:45:22.220Z,5700
2016-06-28T14:46:08.442Z,5888
2016-06-28T14:47:09.058Z,6204
2016-06-28T14:48:08.275Z,6120
2016-06-28T14:49:08.083Z,5884
2016-06-28T14:50:07.689Z,5744
2016-06-28T14:51:08.744Z,5676
2016-06-28T14:52:23.182Z,6172
2016-06-28T14:53:23.574Z,6444
2016-06-28T14:55:07.742Z,5840
2016-06-28T14:56:07.727Z,5384
2016-06-28T14:57:22.615Z,5140
2016-06-28T14:58:07.987Z,5136
2016-06-28T14:59:08.638Z,5032
2016-06-28T15:01:07.386Z,5200
2016-06-28T15:02:22.030Z,5192
2016-06-28T15:03:22.863Z,5232
2016-06-28T15:04:09.300Z,5252
2016-06-28T15:05:38.342Z,5368
2016-06-28T15:06:08.550Z,5284
2016-06-28T15:07:08.750Z,5276
2016-06-28T15:08:07.702Z,5488
2016-06-28T15:09:08.356Z,5656
2016-06-28T15:10:23.019Z,5944
2016-06-28T15:11:23.427Z,6132
2016-06-28T15:12:08.612Z,6156
2016-06-28T15:13:22.837Z,5772
2016-06-28T15:15:08.630Z,5572
2016-06-28T15:16:08.079Z,5620
2016-06-28T15:17:08.268Z,5780
2016-06-28T15:18:23.329Z,6076
2016-06-28T15:19:08.373Z,6240
2016-06-28T15:20:08.731Z,6456
2016-06-28T15:21:22.538Z,6624
2016-06-28T15:22:09.998Z,6744
2016-06-28T15:23:22.557Z,6900
2016-06-28T15:24:08.987Z,6988
2016-06-28T15:25:23.234Z,6968
2016-06-28T16:06:08.396Z,4464
2016-06-28T16:08:08.259Z,4208
2016-06-28T16:08:53.054Z,4256
2016-06-28T16:10:07.506Z,4584
2016-06-28T16:11:08.326Z,4888
2016-06-28T16:11:54.790Z,5384
2016-06-28T16:13:09.669Z,5568
2016-06-28T16:13:54.495Z,5720
2016-06-28T16:16:08.864Z,6180
2016-06-28T16:16:53.790Z,6156
2016-06-28T16:18:09.086Z,5912
2016-06-28T16:18:52.656Z,5768
2016-06-28T16:20:23.485Z,5436
2016-06-28T16:21:08.489Z,5192
2016-06-28T16:21:53.422Z,4904
2016-06-28T16:22:54.242Z,4412
2016-06-28T16:23:54.297Z,4040
2016-06-28T16:25:54.397Z,3896
2016-06-28T16:27:54.862Z,3892
2016-06-28T16:31:08.272Z,4052
2016-06-28T16:32:07.996Z,4204
2016-06-28T16:32:54.208Z,4072
2016-06-28T16:33:54.382Z,3884
2016-06-28T16:34:54.245Z,3972
2016-06-28T16:35:54.441Z,3748
2016-06-28T16:37:08.535Z,3364
2016-06-28T16:37:53.990Z,3236
2016-06-28T16:38:54.751Z,3092
2016-06-28T16:39:53.960Z,3000
2016-06-28T16:40:54.254Z,2912
2016-06-28T16:42:08.585Z,2704
2016-06-28T16:42:54.110Z,2736
2016-06-28T16:43:54.518Z,2860
2016-06-28T16:45:23.639Z,3104
2016-06-28T16:45:54.131Z,3208
2016-06-28T16:46:55.079Z,3292
2016-06-28T16:48:54.185Z,2916
2016-06-28T16:49:54.781Z,2852
2016-06-28T16:51:08.737Z,2996
2016-06-28T16:51:53.590Z,3052
2016-06-28T16:52:53.671Z,3100
2016-06-28T16:55:08.817Z,2748
2016-06-28T16:55:54.838Z,2772
2016-06-28T16:58:09.493Z,2788
2016-06-28T16:58:53.813Z,2860
2016-06-28T17:01:09.050Z,3200
2016-06-28T17:02:09.655Z,3364
2016-06-28T17:03:09.005Z,3576
2016-06-28T17:03:55.000Z,3760
2016-06-28T17:04:55.318Z,3716
2016-06-28T17:06:08.661Z,3716
2016-06-28T17:07:09.565Z,3656
2016-06-28T17:07:55.260Z,3656
2016-06-28T17:09:53.150Z,3552
2016-06-28T17:10:55.756Z,3408
2016-06-28T17:13:18.684Z,3620
2016-06-28T17:15:04.682Z,3952
2016-06-28T17:16:17.939Z,4220
2016-06-28T17:17:03.531Z,4336
2016-06-28T17:18:18.339Z,4464
2016-06-28T17:19:03.551Z,4328
2016-06-28T17:20:03.755Z,4092
2016-06-28T17:21:03.809Z,3748
2016-06-28T17:22:19.028Z,3572
2016-06-28T17:23:04.849Z,3696
2016-06-28T17:24:04.211Z,3928
2016-06-28T17:25:03.686Z,4020
2016-06-28T17:26:03.853Z,3792
2016-06-28T17:27:04.118Z,3572
2016-06-28T17:29:04.381Z,3432
2016-06-28T17:30:32.181Z,3092
2016-06-28T17:31:03.761Z,3000
2016-06-28T17:32:05.006Z,2964
2016-06-28T17:33:04.234Z,2984
2016-06-28T17:34:04.842Z,3184
2016-06-28T17:36:04.739Z,3288
2016-06-28T17:37:04.068Z,3056
2016-06-28T17:38:03.554Z,2712
2016-06-28T17:39:03.483Z,2456
2016-06-28T17:41:03.560Z,2444
2016-06-28T17:42:04.258Z,2372
2016-06-28T17:43:18.813Z,2192
2016-06-28T17:44:05.071Z,2084
2016-06-28T17:45:04.471Z,2040
2016-06-28T17:46:18.898Z,2088
2016-06-28T17:47:03.658Z,2128
2016-06-28T17:48:18.858Z,2280
2016-06-28T17:50:04.397Z,2660
2016-06-28T17:52:04.226Z,2744
2016-06-28T17:53:05.157Z,2636
2016-06-28T17:54:19.420Z,2212
2016-06-28T17:56:05.011Z,1628
2016-06-28T17:57:04.214Z,1392
2016-06-28T17:58:18.840Z,1152
2016-06-28T17:59:19.338Z,1004
2016-06-28T18:00:04.831Z,956
2016-06-28T18:01:04.787Z,912
2016-06-28T18:02:19.767Z,932
2016-06-28T18:03:19.721Z,952
2016-06-28T18:05:05.397Z,1080
2016-06-28T18:06:05.631Z,1232
2016-06-28T18:07:33.498Z,1224
2016-06-28T18:08:19.046Z,1112
2016-06-28T18:09:05.051Z,1000
2016-06-28T18:10:19.367Z,908
2016-06-28T18:11:04.255Z,864
2016-06-28T18:12:04.977Z,856
2016-06-28T18:13:05.602Z,856
2016-06-28T18:16:04.434Z,896
2016-06-28T18:17:18.821Z,1116
2016-06-28T18:18:04.555Z,1268
2016-06-28T18:19:06.160Z,1348
2016-06-28T18:20:05.754Z,1240
2016-06-28T18:21:04.879Z,1116
2016-06-28T18:22:03.513Z,1124
2016-06-28T18:23:18.971Z,1280
2016-06-28T18:24:18.273Z,1432
2016-06-28T18:25:04.460Z,1388
2016-06-28T18:26:04.040Z,1320
2016-06-28T18:27:04.713Z,1260
2016-06-28T18:28:33.436Z,1184
2016-06-28T18:29:05.055Z,1148
2016-06-28T18:30:04.955Z,1040
2016-06-28T18:31:19.955Z,928
2016-06-28T18:32:19.187Z,836
2016-06-28T18:33:05.469Z,760
2016-06-28T18:34:18.926Z,644
2016-06-28T18:35:19.574Z,588
2016-06-28T18:36:05.252Z,580
2016-06-28T18:37:05.411Z,588
2016-06-28T18:38:04.114Z,512
2016-06-28T18:39:05.021Z,452
2016-06-28T18:40:05.014Z,424
2016-06-28T18:42:19.822Z,408
2016-06-28T18:43:05.850Z,396
2016-06-28T18:44:20.445Z,360
2016-06-28T18:45:03.656Z,344
2016-06-28T18:46:05.151Z,332
2016-06-28T18:47:20.255Z,340
2016-06-28T18:49:04.412Z,384
2016-06-28T18:50:05.933Z,408
2016-06-28T18:51:04.514Z,424
2016-06-28T18:52:20.345Z,444
2016-06-28T18:53:19.785Z,444
2016-06-28T18:54:05.927Z,432
2016-06-28T18:55:19.549Z,416
2016-06-28T18:56:19.502Z,396
2016-06-28T18:57:19.608Z,340
2016-06-28T18:59:04.967Z,248
2016-06-28T19:00:05.283Z,236
2016-06-28T19:01:06.033Z,236
2016-06-28T19:02:05.322Z,244
2016-06-28T19:03:06.106Z,240
2016-06-28T19:04:05.235Z,228
2016-06-28T19:05:19.030Z,204
2016-06-28T19:07:04.304Z,168
2016-06-28T19:08:20.071Z,168
2016-06-28T19:10:18.848Z,168
2016-06-28T19:11:05.128Z,168
2016-06-28T19:12:05.403Z,168
2016-06-28T19:14:06.015Z,176
2016-06-28T19:15:06.092Z,172
2016-06-28T19:16:19.770Z,176
2016-06-28T19:17:05.447Z,176
2016-06-28T19:18:06.516Z,180
2016-06-28T19:19:05.345Z,168
2016-06-28T19:20:05.489Z,152
2016-06-28T19:21:04.739Z,140
2016-06-28T19:22:04.642Z,132
2016-06-28T19:24:04.888Z,112
2016-06-28T19:25:19.034Z,104
2016-06-28T19:26:05.649Z,96
2016-06-28T19:28:20.532Z,76
2016-06-28T19:29:04.747Z,68
2016-06-28T19:30:04.742Z,68
2016-06-28T19:31:06.015Z,60
2016-06-28T19:32:04.542Z,56
2016-06-28T19:33:07.358Z,52
2016-06-28T19:34:19.758Z,44
2016-06-28T19:36:05.807Z,36
2016-06-28T19:37:07.072Z,32
2016-06-28T19:38:20.427Z,28
2016-06-28T19:39:34.226Z,24
2016-06-28T19:40:35.493Z,20
2016-06-28T19:41:19.607Z,20
2016-06-28T19:42:06.193Z,20
2016-06-28T19:43:05.913Z,20
2016-06-28T19:44:05.532Z,16
2016-06-28T19:45:19.100Z,12
2016-06-28T19:46:06.757Z,12
2016-06-28T19:47:06.031Z,12
2016-06-28T19:48:06.015Z,8
2016-06-28T19:49:06.459Z,8
2016-06-28T19:50:07.135Z,8
2016-06-28T19:51:06.723Z,4
2016-06-28T19:52:05.720Z,8
2016-06-28T19:53:05.643Z,4
2016-06-28T19:54:05.028Z,4
2016-06-28T19:55:20.030Z,4
2016-06-28T19:56:05.456Z,4
2016-06-28T19:57:04.923Z,4
2016-06-28T19:58:05.383Z,4
2016-06-28T19:59:06.031Z,0
2016-06-28T20:00:06.228Z,4
2016-06-28T20:01:05.717Z,4
2016-06-28T20:02:05.188Z,4
2016-06-28T20:03:06.333Z,4
2016-06-28T20:04:07.487Z,0
2016-06-28T20:05:05.272Z,0
2016-06-28T20:06:04.930Z,0
2016-06-28T20:07:05.701Z,0
2016-06-28T20:09:20.183Z,0
2016-06-28T20:10:05.201Z,0
2016-06-28T20:11:06.464Z,0
2016-06-28T20:12:04.676Z,0
2016-06-28T20:13:05.864Z,0
2016-06-28T20:14:19.874Z,0
2016-06-28T20:15:06.072Z,0
2016-06-28T20:16:20.335Z,0
2016-06-28T20:17:06.478Z,0
2016-06-28T20:18:05.419Z,0
2016-06-28T20:19:05.691Z,0
2016-06-28T20:20:05.429Z,0
2016-06-28T20:21:05.451Z,0
2016-06-28T20:22:06.091Z,0
2016-06-28T20:23:06.749Z,0
2016-06-28T20:24:05.041Z,0
2016-06-28T20:25:06.542Z,0
2016-06-28T20:26:05.501Z,0
2016-06-28T20:27:04.898Z,0
2016-06-28T20:28:06.969Z,0
2016-06-28T20:29:20.171Z,0
2016-06-28T20:30:06.383Z,0
2016-06-28T20:31:20.578Z,0
2016-06-28T20:32:05.961Z,0
2016-06-28T20:33:06.196Z,0
2016-06-28T20:34:05.741Z,0
2016-06-28T20:35:06.719Z,0
2016-06-28T20:36:06.022Z,0
2016-06-28T20:37:06.437Z,0
2016-06-28T20:38:06.939Z,0
2016-06-28T20:39:06.311Z,0
2016-06-28T20:40:07.472Z,0
2016-06-28T20:41:06.088Z,0
2016-06-28T20:42:21.123Z,0
2016-06-28T20:43:06.367Z,0
2016-06-28T20:44:06.093Z,0
2016-06-28T20:45:07.113Z,0
2016-06-28T20:46:05.722Z,0
2016-06-28T20:47:19.702Z,0
2016-06-28T20:48:05.796Z,0
2016-06-28T20:49:05.752Z,0
2016-06-28T20:50:19.781Z,0
2016-06-28T20:51:20.146Z,0
2016-06-28T20:52:06.387Z,0
2016-06-28T20:53:05.565Z,0
2016-06-28T20:54:06.423Z,0
2016-06-28T20:55:35.015Z,0
2016-06-28T20:56:07.267Z,0
2016-06-28T20:57:21.307Z,0
2016-06-28T20:58:07.508Z,0
2016-06-28T20:59:21.678Z,0
2016-06-28T21:00:06.890Z,0
2016-06-28T21:01:06.901Z,0
2016-06-28T21:02:05.259Z,0
2016-06-28T21:04:06.315Z,0
2016-06-28T21:05:05.890Z,0
2016-06-28T21:06:06.332Z,0
2016-06-28T21:07:20.318Z,0
2016-06-28T21:08:21.385Z,0
2016-06-28T21:09:21.155Z,0
2016-06-28T21:10:06.757Z,0
2016-06-28T21:11:07.007Z,0
2016-06-28T21:12:20.356Z,0
2016-06-28T21:13:07.006Z,0
2016-06-28T21:14:20.590Z,0
2016-06-28T21:15:20.830Z,0
2016-06-28T21:17:06.406Z,0
2016-06-28T21:18:06.437Z,0
2016-06-28T21:19:06.474Z,0
2016-06-28T21:20:06.431Z,0
2016-06-28T21:21:07.071Z,0
2016-06-28T21:24:20.709Z,0
2016-06-28T21:25:06.982Z,0
2016-06-28T21:26:05.878Z,0
2016-06-28T21:27:06.781Z,0
2016-06-28T21:28:07.318Z,0
2016-06-28T21:29:06.774Z,0
2016-06-28T21:33:05.298Z,0
2016-06-28T21:34:05.986Z,0
2016-06-28T21:35:06.166Z,0
2016-06-28T21:36:06.655Z,0
2016-06-28T21:37:35.232Z,0
2016-06-28T21:38:06.217Z,0
2016-06-28T21:40:20.870Z,0
2016-06-28T21:41:21.654Z,0
2016-06-28T21:42:06.258Z,0
2016-06-28T21:43:35.478Z,0
2016-06-28T21:44:07.518Z,0
2016-06-28T21:46:05.459Z,0
2016-06-28T21:47:06.086Z,0
2016-06-28T21:48:07.767Z,0
2016-06-28T21:49:07.762Z,0
2016-06-28T21:50:06.097Z,0
2016-06-28T21:51:07.142Z,0
2016-06-28T21:52:21.773Z,0
2016-06-28T21:53:07.395Z,0
2016-06-28T21:54:06.186Z,0
2016-06-28T21:55:05.518Z,0
2016-06-28T21:56:06.770Z,0
2016-06-28T21:59:20.588Z,0
2016-06-28T22:00:05.553Z,0
2016-06-28T22:01:06.836Z,0
2016-06-28T22:02:07.063Z,0
2016-06-28T22:03:06.857Z,0
2016-06-28T22:04:07.063Z,0
2016-06-28T22:05:07.695Z,0
2016-06-28T22:06:06.646Z,0
2016-06-28T22:07:06.875Z,0
2016-06-28T22:08:07.296Z,0
2016-06-28T22:09:07.295Z,0
2016-06-28T22:10:06.904Z,0
2016-06-28T22:11:20.749Z,0
2016-06-28T22:12:06.926Z,0
2016-06-28T22:13:35.552Z,0
2016-06-28T22:14:07.611Z,0
2016-06-28T22:15:07.208Z,0
2016-06-28T22:16:07.610Z,0
2016-06-28T22:17:07.608Z,0
2016-06-28T22:18:21.977Z,0
2016-06-28T22:19:06.353Z,0
2016-06-28T22:20:06.825Z,0
2016-06-28T22:22:21.442Z,0
2016-06-28T22:23:06.642Z,0
2016-06-28T22:24:21.241Z,0
2016-06-28T22:25:07.456Z,0
2016-06-28T22:26:21.461Z,0
2016-06-28T22:27:21.271Z,0
2016-06-28T22:28:07.078Z,0
2016-06-28T22:29:07.086Z,0
2016-06-28T22:30:06.679Z,0
2016-06-28T22:31:20.889Z,0
2016-06-28T22:32:06.049Z,0
2016-06-28T22:33:05.891Z,0
2016-06-28T22:34:07.125Z,0
2016-06-28T22:35:06.066Z,0
2016-06-28T22:36:21.313Z,0
2016-06-28T22:37:06.291Z,0
2016-06-28T22:38:09.002Z,0
2016-06-28T22:39:06.762Z,0
2016-06-28T22:40:20.742Z,0
2016-06-28T22:41:35.806Z,0
2016-06-28T22:42:06.760Z,0
2016-06-28T22:43:21.638Z,0
2016-06-28T22:44:06.177Z,0
2016-06-28T22:45:07.844Z,0
2016-06-28T22:46:07.842Z,0
2016-06-28T22:47:08.278Z,0
2016-06-28T22:48:07.234Z,0
2016-06-28T22:50:22.076Z,0
2016-06-28T22:51:07.664Z,0
2016-06-28T22:52:07.269Z,0
2016-06-28T22:53:07.910Z,0
2016-06-28T22:54:06.694Z,0
2016-06-28T22:55:21.698Z,0
2016-06-28T22:56:07.702Z,0
2016-06-28T22:57:07.127Z,0
2016-06-28T22:58:21.322Z,0
2016-06-28T23:00:07.146Z,0
2016-06-28T23:01:35.965Z,0
2016-06-28T23:02:21.577Z,0
2016-06-28T23:03:07.817Z,0
2016-06-28T23:04:07.587Z,0
2016-06-28T23:05:07.804Z,0
2016-06-28T23:06:07.811Z,0
2016-06-28T23:07:08.633Z,0
2016-06-28T23:08:08.236Z,0
2016-06-28T23:09:21.625Z,0
2016-06-28T23:10:07.622Z,0
2016-06-28T23:11:23.030Z,0
2016-06-28T23:12:07.640Z,0
2016-06-28T23:13:22.092Z,0
2016-06-28T23:14:07.221Z,0
2016-06-28T23:15:06.434Z,0
2016-06-28T23:16:08.101Z,0
2016-06-28T23:17:08.316Z,0
2016-06-28T23:18:07.896Z,0
2016-06-28T23:19:21.720Z,0
2016-06-28T23:20:07.057Z,0
2016-06-28T23:21:21.740Z,0
2016-06-28T23:22:07.938Z,0
2016-06-28T23:23:07.527Z,0
2016-06-28T23:24:08.642Z,0
2016-06-28T23:25:21.972Z,0
2016-06-28T23:26:07.568Z,0
2016-06-28T23:27:07.543Z,0
2016-06-28T23:28:07.778Z,0
2016-06-28T23:29:06.945Z,0
2016-06-28T23:30:07.797Z,0
2016-06-28T23:31:07.162Z,0
2016-06-28T23:32:07.856Z,0
2016-06-28T23:33:07.178Z,0
2016-06-28T23:34:07.007Z,0
2016-06-28T23:35:07.846Z,0
2016-06-28T23:36:21.438Z,0
2016-06-28T23:37:06.410Z,0
2016-06-28T23:39:07.015Z,0
2016-06-28T23:40:07.679Z,0
2016-06-28T23:41:07.677Z,0
2016-06-28T23:42:21.678Z,0
2016-06-28T23:43:07.126Z,0
2016-06-28T23:44:22.713Z,0
2016-06-28T23:45:08.126Z,0
2016-06-28T23:48:22.175Z,0
2016-06-28T23:49:22.137Z,0
2016-06-28T23:50:06.983Z,0
2016-06-28T23:51:07.955Z,0
2016-06-28T23:54:22.415Z,0
2016-06-28T23:55:08.823Z,0
2016-06-28T23:56:08.047Z,0
2016-06-28T23:57:07.816Z,0
2016-06-28T23:58:07.810Z,0
2016-06-28T23:59:08.426Z,0
